createdAt,value
2022-09-05T00:00:06.700Z,95908.72
2022-09-05T00:02:54.202Z,95907.13
2022-09-05T00:06:02.550Z,95904.06
2022-09-05T00:08:44.651Z,95907.28
2022-09-05T00:11:42.806Z,95907.66
2022-09-05T00:14:34.451Z,95899.25
2022-09-05T00:17:27.833Z,95908.72
2022-09-05T00:24:28.936Z,95910.75
2022-09-05T00:24:45.726Z,95909.25
2022-09-05T00:26:26.011Z,95904.25
2022-09-05T00:29:06.184Z,95905.19
2022-09-05T00:31:56.838Z,95911.06
2022-09-05T00:34:56.216Z,95910.72
2022-09-05T00:37:33.161Z,95910.31
2022-09-05T00:40:29.342Z,95911.66
2022-09-05T00:43:02.852Z,95909.25
2022-09-05T00:45:36.675Z,95917.88
2022-09-05T00:48:15.455Z,95925.28
2022-09-05T00:50:58.359Z,95932.19
2022-09-05T00:53:34.809Z,95929.41
2022-09-05T00:56:14.633Z,95924.06
2022-09-05T00:59:09.860Z,95916.31
2022-09-05T01:01:45.350Z,95911.16
2022-09-05T01:04:28.312Z,95887.84
2022-09-05T01:07:10.385Z,95925.72
2022-09-05T01:09:56.911Z,95925.94
2022-09-05T01:12:52.820Z,95913.44
2022-09-05T01:15:32.754Z,95900.53
2022-09-05T01:18:31.239Z,95917.28
2022-09-05T01:21:14.088Z,95808.63
2022-09-05T01:23:55.493Z,95917.69
2022-09-05T01:27:01.775Z,95905.25
2022-09-05T01:29:41.333Z,95902.97
2022-09-05T01:32:31.701Z,95902.59
2022-09-05T01:35:25.826Z,95896.41
2022-09-05T01:37:59.916Z,95889.31
2022-09-05T01:40:38.339Z,95887.44
2022-09-05T01:43:18.187Z,95883.56
2022-09-05T01:45:51.246Z,95864.19
2022-09-05T01:48:34.741Z,95896.03
2022-09-05T01:51:29.541Z,95894.19
2022-09-05T01:54:23.524Z,95883.00
2022-09-05T01:57:08.260Z,95885.13
2022-09-05T01:59:46.042Z,95893.72
2022-09-05T02:02:32.759Z,95881.78
2022-09-05T02:05:47.660Z,95896.34
2022-09-05T02:08:30.022Z,95886.50
2022-09-05T02:11:07.332Z,95897.63
2022-09-05T02:13:53.497Z,95895.16
2022-09-05T02:16:27.687Z,95900.66
2022-09-05T02:19:06.613Z,95902.16
2022-09-05T02:21:55.628Z,95897.50
2022-09-05T02:24:30.348Z,95895.50
2022-09-05T02:27:35.308Z,95894.41
2022-09-05T02:30:09.467Z,95878.69
2022-09-05T02:32:48.125Z,95895.91
2022-09-05T02:35:25.289Z,95897.50
2022-09-05T02:39:09.206Z,95899.81
2022-09-05T02:45:14.498Z,95903.66
2022-09-05T02:45:21.827Z,95909.97
2022-09-05T02:46:46.728Z,95893.84
2022-09-05T02:51:52.196Z,95920.25
2022-09-05T02:57:24.732Z,95911.19
2022-09-05T02:57:39.469Z,95900.44
2022-09-05T02:58:27.033Z,95895.66
2022-09-05T03:01:02.371Z,95799.38
2022-09-05T03:03:39.167Z,95912.16
2022-09-05T03:06:17.754Z,95902.28
2022-09-05T03:09:24.415Z,95909.72
2022-09-05T03:12:35.455Z,95914.75
2022-09-05T03:15:31.167Z,95919.50
2022-09-05T03:18:29.514Z,95916.75
2022-09-05T03:21:57.987Z,95923.31
2022-09-05T03:25:04.041Z,95920.19
2022-09-05T03:28:03.408Z,95932.56
2022-09-05T03:30:50.923Z,95926.69
2022-09-05T03:34:12.440Z,95919.66
2022-09-05T03:37:05.261Z,95917.28
2022-09-05T03:39:59.426Z,95935.00
2022-09-05T03:43:00.027Z,95929.59
2022-09-05T03:45:49.521Z,95944.09
2022-09-05T03:48:34.804Z,95946.78
2022-09-05T03:57:12.399Z,95945.63
2022-09-05T03:57:15.202Z,95958.06
2022-09-05T03:57:42.536Z,95951.72
2022-09-05T04:00:22.379Z,95949.41
2022-09-05T04:08:05.953Z,95957.97
2022-09-05T04:08:16.802Z,95959.13
2022-09-05T04:08:55.435Z,95975.06
2022-09-05T04:11:33.267Z,95972.69
2022-09-05T04:14:05.651Z,95970.78
2022-09-05T04:16:47.392Z,95951.69
2022-09-05T04:19:22.063Z,95977.34
2022-09-05T04:21:56.504Z,95978.31
2022-09-05T04:24:31.355Z,95981.75
2022-09-05T04:27:21.145Z,95976.22
2022-09-05T04:30:11.684Z,95986.72
2022-09-05T04:33:00.493Z,95955.28
2022-09-05T04:35:34.884Z,95981.28
2022-09-05T04:38:12.244Z,95975.31
2022-09-05T04:40:43.918Z,95987.59
2022-09-05T04:43:19.995Z,96008.97
2022-09-05T04:45:53.490Z,96000.50
2022-09-05T04:48:28.029Z,95989.72
2022-09-05T04:51:06.188Z,95991.72
2022-09-05T04:54:16.600Z,96014.75
2022-09-05T04:56:50.531Z,96002.41
2022-09-05T05:01:13.176Z,96005.34
2022-09-05T05:06:02.017Z,96011.53
2022-09-05T05:06:09.581Z,96020.16
2022-09-05T05:08:23.893Z,96026.88
2022-09-05T05:14:35.377Z,96027.91
2022-09-05T05:17:55.392Z,96025.31
2022-09-05T05:18:13.922Z,96034.72
2022-09-05T05:19:43.333Z,95997.63
2022-09-05T05:22:18.358Z,96037.00
2022-09-05T05:24:49.148Z,95996.59
2022-09-05T05:27:23.102Z,96007.94
2022-09-05T05:29:56.598Z,96049.38
2022-09-05T05:32:43.661Z,96056.91
2022-09-05T05:35:17.061Z,96055.03
2022-09-05T05:37:49.993Z,96030.03
2022-09-05T05:40:22.914Z,96059.44
2022-09-05T05:42:50.904Z,96039.44
2022-09-05T05:45:21.569Z,96041.97
2022-09-05T05:47:53.219Z,96010.03
2022-09-05T05:50:34.563Z,96057.91
2022-09-05T05:53:43.146Z,96061.25
2022-09-05T05:56:39.266Z,96051.06
2022-09-05T05:59:33.621Z,96050.50
2022-09-05T06:02:43.401Z,96021.38
2022-09-05T06:05:35.023Z,96056.81
2022-09-05T06:11:40.234Z,96051.94
2022-09-05T06:15:07.078Z,96057.81
2022-09-05T06:15:25.155Z,96058.00
2022-09-05T06:18:20.005Z,96061.53
2022-09-05T06:22:08.690Z,96058.44
2022-09-05T06:24:34.436Z,96038.59
2022-09-05T06:27:32.914Z,96066.78
2022-09-05T06:30:05.737Z,96027.63
2022-09-05T06:33:09.648Z,96076.47
2022-09-05T06:35:50.968Z,96075.47
2022-09-05T06:38:52.891Z,96056.28
2022-09-05T06:41:29.556Z,96069.50
2022-09-05T06:44:40.414Z,96037.78
2022-09-05T06:47:30.168Z,96059.13
2022-09-05T06:50:24.120Z,96083.69
2022-09-05T06:53:39.587Z,95986.94
2022-09-05T06:56:30.656Z,96064.75
2022-09-05T06:59:25.355Z,96080.44
2022-09-05T07:02:00.608Z,96051.38
2022-09-05T07:05:23.826Z,96074.59
2022-09-05T07:07:34.620Z,96072.53
2022-09-05T07:10:28.183Z,96078.50
2022-09-05T07:13:04.743Z,96057.78
2022-09-05T07:15:44.509Z,96076.63
2022-09-05T07:18:20.505Z,96065.44
2022-09-05T07:21:18.283Z,96048.97
2022-09-05T07:24:07.118Z,96063.09
2022-09-05T07:26:51.475Z,96067.13
2022-09-05T07:29:28.167Z,96068.75
2022-09-05T07:31:59.968Z,96041.22
2022-09-05T07:34:30.833Z,96058.88
2022-09-05T07:37:14.999Z,96039.31
2022-09-05T07:39:54.691Z,96067.25
2022-09-05T07:42:28.262Z,96055.03
2022-09-05T07:44:59.311Z,96021.41
2022-09-05T07:47:32.074Z,96065.31
2022-09-05T07:51:00.710Z,95952.06
2022-09-05T07:56:50.275Z,96077.25
2022-09-05T07:57:06.156Z,96063.16
2022-09-05T07:58:39.809Z,96031.97
2022-09-05T08:01:10.473Z,96056.97
2022-09-05T08:03:40.031Z,96066.25
2022-09-05T08:06:14.844Z,96017.53
2022-09-05T08:10:06.661Z,96058.00
2022-09-05T08:12:04.548Z,96076.59
2022-09-05T08:14:46.015Z,96066.47
2022-09-05T08:17:19.505Z,96059.00
2022-09-05T08:20:09.155Z,96057.28
2022-09-05T08:22:52.670Z,96071.63
2022-09-05T08:25:25.604Z,96067.34
2022-09-05T08:28:07.536Z,96051.66
2022-09-05T08:30:44.093Z,96066.31
2022-09-05T08:33:16.332Z,96059.06
2022-09-05T08:35:57.743Z,96074.06
2022-09-05T08:38:38.784Z,96056.97
2022-09-05T08:41:16.452Z,96026.81
2022-09-05T08:46:41.900Z,96059.84
2022-09-05T08:46:50.881Z,96059.75
2022-09-05T08:49:44.017Z,96050.78
2022-09-05T08:52:28.039Z,96068.22
2022-09-05T08:55:07.761Z,96070.78
2022-09-05T08:58:05.745Z,96065.59
2022-09-05T09:00:39.431Z,96065.81
2022-09-05T09:03:16.320Z,96069.06
2022-09-05T09:06:15.925Z,96061.91
2022-09-05T09:09:09.540Z,96060.94
2022-09-05T09:11:40.140Z,96061.38
2022-09-05T09:14:36.517Z,96064.31
2022-09-05T09:17:20.408Z,96030.41
2022-09-05T09:19:53.130Z,96053.22
2022-09-05T09:22:39.339Z,96062.22
2022-09-05T09:25:15.288Z,96046.72
2022-09-05T09:28:48.034Z,96064.81
2022-09-05T09:31:07.024Z,96066.53
2022-09-05T09:33:42.899Z,96060.75
2022-09-05T09:36:25.937Z,96068.69
2022-09-05T09:39:38.759Z,96061.75
2022-09-05T09:42:33.052Z,96063.78
2022-09-05T09:45:29.669Z,96036.91
2022-09-05T09:48:20.609Z,96027.44
2022-09-05T09:51:05.685Z,96050.38
2022-09-05T09:53:49.733Z,96000.94
2022-09-05T09:56:48.491Z,96034.28
2022-09-05T09:59:35.504Z,96026.75
2022-09-05T10:06:43.741Z,96022.81
2022-09-05T10:10:50.236Z,95975.34
2022-09-05T10:10:53.991Z,96013.72
2022-09-05T10:12:17.505Z,95995.50
2022-09-05T10:15:30.897Z,96004.94
2022-09-05T10:18:31.458Z,96016.28
2022-09-05T10:21:29.601Z,95894.41
2022-09-05T10:24:35.654Z,96009.78
2022-09-05T10:27:29.630Z,96001.50
2022-09-05T10:30:41.834Z,95996.06
2022-09-05T10:35:15.498Z,95983.03
2022-09-05T10:36:27.105Z,95997.84
2022-09-05T10:39:18.095Z,95997.66
2022-09-05T10:41:51.015Z,95961.41
2022-09-05T10:44:27.182Z,95985.63
2022-09-05T10:47:06.863Z,95978.13
2022-09-05T10:49:38.088Z,95992.78
2022-09-05T10:52:19.066Z,95941.16
2022-09-05T10:55:14.665Z,95988.00
2022-09-05T10:58:12.538Z,95975.38
2022-09-05T11:02:29.254Z,95942.00
2022-09-05T11:03:56.451Z,95943.38
2022-09-05T11:06:37.107Z,95978.91
2022-09-05T11:09:16.396Z,95940.47
2022-09-05T11:11:51.346Z,95975.47
2022-09-05T11:14:35.159Z,95975.06
2022-09-05T11:17:12.912Z,95972.72
2022-09-05T11:19:44.478Z,95971.50
2022-09-05T11:22:23.935Z,95969.09
2022-09-05T11:24:56.818Z,95952.34
2022-09-05T11:27:33.075Z,95832.13
2022-09-05T11:30:05.709Z,95958.00
2022-09-05T11:39:47.726Z,95953.06
2022-09-05T11:39:48.206Z,95959.59
2022-09-05T11:40:24.830Z,95954.25
2022-09-05T11:42:29.364Z,95954.34
2022-09-05T11:45:20.740Z,95958.88
2022-09-05T11:48:17.136Z,95957.38
2022-09-05T11:51:34.112Z,95941.25
2022-09-05T11:54:43.971Z,95963.94
2022-09-05T11:57:42.903Z,95942.31
2022-09-05T12:00:31.123Z,95902.44
2022-09-05T12:03:59.439Z,95936.03
2022-09-05T12:07:15.642Z,95934.59
2022-09-05T12:10:46.909Z,95939.41
2022-09-05T12:13:35.177Z,95936.72
2022-09-05T12:16:20.054Z,95927.06
2022-09-05T12:19:19.292Z,95920.59
2022-09-05T12:22:08.843Z,95911.38
2022-09-05T12:25:25.325Z,95914.31
2022-09-05T12:29:27.514Z,95922.06
2022-09-05T12:30:57.136Z,95900.31
2022-09-05T12:36:09.704Z,95897.34
2022-09-05T12:40:05.171Z,95925.38
2022-09-05T12:40:57.773Z,95924.22
2022-09-05T12:42:39.994Z,95923.53
2022-09-05T12:45:32.463Z,95929.97
2022-09-05T12:48:13.521Z,95880.13
2022-09-05T12:50:47.064Z,95918.34
2022-09-05T12:53:19.512Z,95925.59
2022-09-05T12:56:02.061Z,95918.28
2022-09-05T13:03:05.628Z,95880.34
2022-09-05T13:03:14.613Z,95914.72
2022-09-05T13:04:32.060Z,95906.78
2022-09-05T13:07:09.524Z,95914.41
2022-09-05T13:11:10.052Z,95901.13
2022-09-05T13:14:58.637Z,95907.72
2022-09-05T13:15:28.249Z,95906.06
2022-09-05T13:18:02.916Z,95910.84
2022-09-05T13:20:35.475Z,95881.31
2022-09-05T13:23:13.915Z,95916.31
2022-09-05T13:25:43.948Z,95876.78
2022-09-05T13:28:15.692Z,95904.56
2022-09-05T13:34:12.710Z,95894.69
2022-09-05T13:38:15.471Z,95904.94
2022-09-05T13:38:29.397Z,95916.09
2022-09-05T13:39:29.274Z,95901.66
2022-09-05T13:42:01.556Z,95900.88
2022-09-05T13:44:30.784Z,95907.03
2022-09-05T13:47:02.613Z,95900.59
2022-09-05T13:50:05.097Z,95898.91
2022-09-05T13:52:39.701Z,95859.38
2022-09-05T13:55:40.080Z,95875.75
2022-09-05T13:58:13.187Z,95865.25
2022-09-05T14:01:23.359Z,95870.91
2022-09-05T14:07:50.185Z,95870.38
2022-09-05T14:10:45.145Z,95882.81
2022-09-05T14:13:19.735Z,95895.53
2022-09-05T14:15:53.870Z,95896.78
2022-09-05T14:18:24.796Z,95905.59
2022-09-05T14:21:15.264Z,95903.75
2022-09-05T14:23:53.629Z,95874.53
2022-09-05T14:26:29.552Z,95890.13
2022-09-05T14:29:14.270Z,95903.97
2022-09-05T14:37:35.356Z,95899.78
2022-09-05T14:38:01.184Z,95880.34
2022-09-05T14:38:15.264Z,95886.25
2022-09-05T14:41:34.441Z,95894.22
2022-09-05T14:44:28.673Z,95893.03
2022-09-05T14:47:37.725Z,95890.53
2022-09-05T14:50:38.100Z,95901.50
2022-09-05T14:56:23.151Z,95911.38
2022-09-05T15:02:42.069Z,95911.75
2022-09-05T15:02:52.381Z,95892.16
2022-09-05T15:04:44.624Z,95898.69
2022-09-05T15:07:17.229Z,95913.28
2022-09-05T15:12:17.314Z,95903.44
2022-09-05T15:12:46.057Z,95906.63
2022-09-05T15:15:22.644Z,95908.28
2022-09-05T15:17:57.482Z,95915.25
2022-09-05T15:20:35.789Z,95869.84
2022-09-05T15:23:16.347Z,95924.16
2022-09-05T15:25:48.281Z,95918.66
2022-09-05T15:28:21.901Z,95918.13
2022-09-05T15:30:58.807Z,95909.22
2022-09-05T15:33:30.417Z,95904.88
2022-09-05T15:35:59.515Z,95928.44
2022-09-05T15:38:31.416Z,95936.31
2022-09-05T15:41:17.273Z,95932.50
2022-09-05T15:43:59.778Z,95942.75
2022-09-05T15:46:37.198Z,95942.00
2022-09-05T15:49:25.660Z,95917.25
2022-09-05T15:51:56.836Z,95942.78
2022-09-05T15:54:37.546Z,95930.19
2022-09-05T15:57:15.255Z,95941.19
2022-09-05T15:59:49.192Z,95947.13
2022-09-05T16:02:22.074Z,95930.22
2022-09-05T16:10:34.448Z,95934.94
2022-09-05T16:10:49.601Z,95912.59
2022-09-05T16:11:38.290Z,95925.53
2022-09-05T16:13:52.984Z,95907.09
2022-09-05T16:23:17.686Z,95936.56
2022-09-05T16:23:26.367Z,95944.84
2022-09-05T16:23:29.521Z,95944.47
2022-09-05T16:25:06.119Z,95913.78
2022-09-05T16:27:53.388Z,95949.13
2022-09-05T16:30:24.096Z,95947.53
2022-09-05T16:32:57.611Z,95910.97
2022-09-05T16:35:26.655Z,95936.53
2022-09-05T16:38:07.057Z,95960.88
2022-09-05T16:40:39.300Z,95947.44
2022-09-05T16:43:11.396Z,95966.34
2022-09-05T16:45:47.656Z,95954.94
2022-09-05T16:48:34.526Z,95960.41
2022-09-05T16:51:15.413Z,95937.94
2022-09-05T16:53:58.481Z,95943.41
2022-09-05T16:56:31.235Z,95954.34
2022-09-05T16:59:02.946Z,95942.50
2022-09-05T17:02:06.030Z,95944.78
2022-09-05T17:05:04.741Z,95968.75
2022-09-05T17:07:44.305Z,95959.34
2022-09-05T17:10:19.309Z,95968.38
2022-09-05T17:12:51.663Z,95922.25
2022-09-05T17:15:26.129Z,95972.97
2022-09-05T17:18:22.292Z,95938.31
2022-09-05T17:20:50.884Z,95963.34
2022-09-05T17:27:57.006Z,95971.91
2022-09-05T17:29:25.036Z,95955.53
2022-09-05T17:29:33.769Z,95971.41
2022-09-05T17:31:58.887Z,95975.94
2022-09-05T17:35:17.641Z,95997.50
2022-09-05T17:38:30.003Z,95991.94
2022-09-05T17:41:34.731Z,96000.91
2022-09-05T17:44:10.732Z,95985.25
2022-09-05T17:46:48.530Z,95989.69
2022-09-05T17:49:42.913Z,95989.78
2022-09-05T17:52:28.677Z,95980.25
2022-09-05T17:54:57.338Z,95977.78
2022-09-05T17:57:41.456Z,95986.81
2022-09-05T18:00:49.493Z,95988.09
2022-09-05T18:04:15.974Z,95995.88
2022-09-05T18:06:59.625Z,95992.31
2022-09-05T18:10:14.736Z,95981.63
2022-09-05T18:13:13.624Z,96001.97
2022-09-05T18:16:12.023Z,96003.38
2022-09-05T18:19:29.099Z,95974.59
2022-09-05T18:21:49.934Z,95981.63
2022-09-05T18:24:24.794Z,95989.97
2022-09-05T18:27:27.450Z,95985.75
2022-09-05T18:30:01.766Z,95994.00
2022-09-05T18:32:47.295Z,95978.97
2022-09-05T18:35:36.201Z,95996.66
2022-09-05T18:38:51.674Z,96001.72
2022-09-05T18:41:28.203Z,95996.91
2022-09-05T18:44:13.266Z,96002.69
2022-09-05T18:46:52.467Z,95996.53
2022-09-05T18:50:22.141Z,95995.75
2022-09-05T18:52:23.752Z,95986.34
2022-09-05T18:55:31.717Z,95974.44
2022-09-05T18:57:48.295Z,95959.56
2022-09-05T19:00:35.203Z,95941.28
2022-09-05T19:03:19.607Z,95970.41
2022-09-05T19:06:04.261Z,95962.47
2022-09-05T19:08:49.053Z,95976.69
2022-09-05T19:11:28.671Z,95939.41
2022-09-05T19:14:25.238Z,95926.38
2022-09-05T19:16:49.657Z,95974.09
2022-09-05T19:19:24.798Z,95983.09
2022-09-05T19:21:57.179Z,95965.31
2022-09-05T19:24:46.078Z,95976.38
2022-09-05T19:29:56.286Z,95978.63
2022-09-05T19:36:51.373Z,95980.94
2022-09-05T19:36:57.699Z,95973.63
2022-09-05T19:37:03.964Z,95979.53
2022-09-05T19:39:01.509Z,95928.25
2022-09-05T19:47:27.912Z,95968.75
2022-09-05T19:47:37.702Z,95975.78
2022-09-05T19:47:55.936Z,95974.06
2022-09-05T19:50:21.748Z,95977.53
2022-09-05T19:52:54.551Z,95975.53
2022-09-05T19:55:26.177Z,95977.41
2022-09-05T19:58:19.498Z,95975.78
2022-09-05T20:00:55.570Z,95981.94
2022-09-05T20:03:37.164Z,95933.81
2022-09-05T20:06:28.646Z,95984.63
2022-09-05T20:09:11.176Z,95952.06
2022-09-05T20:11:46.230Z,95973.69
2022-09-05T20:14:26.728Z,95958.34
2022-09-05T20:16:57.862Z,95973.81
2022-09-05T20:19:29.948Z,95961.78
2022-09-05T20:22:12.838Z,95949.03
2022-09-05T20:24:54.305Z,95969.25
2022-09-05T20:27:27.526Z,95979.06
2022-09-05T20:29:58.795Z,95977.69
2022-09-05T20:32:39.686Z,95969.78
2022-09-05T20:38:36.816Z,95981.44
2022-09-05T20:43:21.593Z,95966.91
2022-09-05T20:43:22.130Z,95966.00
2022-09-05T20:43:55.805Z,95956.25
2022-09-05T20:51:27.909Z,95958.44
2022-09-05T20:54:06.773Z,95968.66
2022-09-05T20:54:20.957Z,95970.28
2022-09-05T20:55:38.940Z,95973.69
2022-09-05T20:58:12.430Z,95976.59
2022-09-05T21:01:15.379Z,95973.50
2022-09-05T21:03:38.028Z,95938.44
2022-09-05T21:06:22.026Z,95905.59
2022-09-05T21:08:50.740Z,95971.41
2022-09-05T21:11:28.639Z,95972.69
2022-09-05T21:14:01.792Z,95942.41
2022-09-05T21:16:32.975Z,95953.69
2022-09-05T21:19:00.936Z,95963.25
2022-09-05T21:21:31.220Z,95963.78
2022-09-05T21:24:16.663Z,95966.56
2022-09-05T21:26:48.522Z,95971.75
2022-09-05T21:29:27.216Z,95965.28
2022-09-05T21:32:02.001Z,95966.28
2022-09-05T21:34:34.360Z,95962.06
2022-09-05T21:37:07.107Z,95963.81
2022-09-05T21:39:40.167Z,95890.09
2022-09-05T21:42:42.803Z,95960.50
2022-09-05T21:47:39.701Z,95940.09
2022-09-05T21:47:53.143Z,95955.31
2022-09-05T21:50:30.638Z,95951.03
2022-09-05T21:53:52.369Z,95912.53
2022-09-05T21:59:16.840Z,95967.09
2022-09-05T21:59:36.467Z,95967.19
2022-09-05T22:01:51.555Z,95968.16
2022-09-05T22:04:19.350Z,95970.47
2022-09-05T22:06:48.544Z,95953.41
2022-09-05T22:09:17.352Z,95968.09
2022-09-05T22:11:48.000Z,95965.81
2022-09-05T22:14:15.865Z,95962.97
2022-09-05T22:16:47.409Z,95959.81
2022-09-05T22:19:22.905Z,95908.59
2022-09-05T22:21:54.558Z,95971.00
2022-09-05T22:24:24.295Z,95957.69
2022-09-05T22:27:11.229Z,95971.75
2022-09-05T22:29:41.073Z,95962.22
2022-09-05T22:32:10.400Z,95970.25
2022-09-05T22:34:38.324Z,95975.88
2022-09-05T22:37:06.383Z,95974.63
2022-09-05T22:39:37.274Z,95976.69
2022-09-05T22:42:10.152Z,95975.63
2022-09-05T22:44:39.690Z,95973.97
2022-09-05T22:47:09.202Z,95959.13
2022-09-05T22:49:38.632Z,95970.19
2022-09-05T22:52:07.903Z,95965.59
2022-09-05T22:54:36.347Z,95959.28
2022-09-05T22:57:05.178Z,95957.78
2022-09-05T22:59:33.101Z,95982.22
2022-09-05T23:02:01.098Z,95973.94
2022-09-05T23:04:29.275Z,95972.34
2022-09-05T23:07:02.550Z,95973.16
2022-09-05T23:09:30.690Z,95974.75
2022-09-05T23:11:58.675Z,95978.59
2022-09-05T23:14:26.567Z,95960.94
2022-09-05T23:16:55.071Z,95972.63
2022-09-05T23:19:22.980Z,95972.63
2022-09-05T23:21:50.876Z,95976.47
2022-09-05T23:24:20.179Z,95974.91
2022-09-05T23:26:48.040Z,95974.22
2022-09-05T23:29:16.060Z,95973.00
2022-09-05T23:31:43.924Z,95918.88
2022-09-05T23:34:11.824Z,95975.00
2022-09-05T23:36:39.713Z,95973.00
2022-09-05T23:39:07.673Z,95972.44
2022-09-05T23:41:37.031Z,95970.69
2022-09-05T23:44:12.146Z,95943.03
2022-09-05T23:46:40.614Z,95965.06
2022-09-05T23:49:08.646Z,95971.47
2022-09-05T23:51:36.691Z,95973.19
2022-09-05T23:54:04.756Z,95968.56
2022-09-05T23:56:32.662Z,95963.81
2022-09-05T23:59:01.996Z,95973.47
